createdAt,value
2018-03-22T00:00:23.950Z,10.53
2018-03-22T00:02:28.233Z,14.00
2018-03-22T00:04:31.599Z,11.23
2018-03-22T00:06:35.052Z,18.13
2018-03-22T00:08:38.486Z,14.23
2018-03-22T00:10:41.880Z,14.43
2018-03-22T00:12:45.276Z,11.10
2018-03-22T00:14:48.667Z,14.00
2018-03-22T00:16:52.006Z,13.00
2018-03-22T00:18:56.100Z,18.60
2018-03-22T00:20:59.818Z,24.47
2018-03-22T00:23:03.932Z,34.20
2018-03-22T00:25:08.048Z,35.60
2018-03-22T00:27:11.399Z,36.42
2018-03-22T00:29:14.757Z,21.73
2018-03-22T00:31:23.786Z,20.13
2018-03-22T00:33:27.146Z,30.27
2018-03-22T00:35:31.288Z,33.10
2018-03-22T00:37:35.395Z,27.07
2018-03-22T00:39:38.735Z,25.20
2018-03-22T00:41:42.853Z,26.40
2018-03-22T00:43:47.694Z,19.93
2018-03-22T00:45:51.087Z,15.67
2018-03-22T00:47:54.465Z,24.67
2018-03-22T00:49:58.657Z,16.63
2018-03-22T00:52:02.104Z,17.63
2018-03-22T00:54:05.481Z,21.73
2018-03-22T00:56:08.888Z,19.07
2018-03-22T00:58:12.226Z,22.13
2018-03-22T01:00:15.560Z,17.40
2018-03-22T01:02:18.965Z,17.70
2018-03-22T01:04:22.347Z,17.10
2018-03-22T01:06:25.769Z,19.70
2018-03-22T01:08:29.134Z,15.60
2018-03-22T01:10:32.501Z,13.30
2018-03-22T01:12:35.932Z,15.75
2018-03-22T01:14:39.282Z,13.35
2018-03-22T01:16:44.911Z,17.63
2018-03-22T01:18:49.326Z,14.50
2018-03-22T01:20:53.353Z,11.07
2018-03-22T01:22:56.952Z,11.77
2018-03-22T01:25:00.363Z,14.40
2018-03-22T01:27:03.778Z,17.70
2018-03-22T01:29:07.420Z,11.43
2018-03-22T01:31:11.579Z,14.95
2018-03-22T01:33:15.821Z,17.37
2018-03-22T01:35:20.993Z,15.00
2018-03-22T01:37:25.999Z,13.05
2018-03-22T01:39:31.337Z,15.25
2018-03-22T01:41:35.469Z,14.48
2018-03-22T01:43:39.579Z,19.65
2018-03-22T01:45:42.937Z,15.50
2018-03-22T01:47:47.165Z,12.00
2018-03-22T01:49:51.444Z,11.93
2018-03-22T01:51:54.778Z,10.60
2018-03-22T01:53:58.938Z,12.70
2018-03-22T01:56:02.335Z,12.32
2018-03-22T01:58:05.728Z,17.20
2018-03-22T02:00:09.109Z,11.85
2018-03-22T02:02:12.498Z,14.65
2018-03-22T02:04:15.886Z,17.87
2018-03-22T02:06:22.719Z,11.95
2018-03-22T02:08:26.849Z,16.70
2018-03-22T02:10:30.192Z,12.55
2018-03-22T02:12:34.330Z,13.98
2018-03-22T02:14:38.439Z,12.00
2018-03-22T02:16:41.815Z,18.00
2018-03-22T02:18:45.968Z,12.60
2018-03-22T02:20:49.339Z,11.55
2018-03-22T02:22:52.693Z,9.98
2018-03-22T02:24:56.022Z,11.30
2018-03-22T02:26:59.377Z,9.35
2018-03-22T02:29:02.748Z,14.03
2018-03-22T02:31:06.104Z,11.12
2018-03-22T02:33:09.464Z,9.10
2018-03-22T02:35:12.802Z,13.07
2018-03-22T02:37:16.145Z,14.13
2018-03-22T02:39:20.821Z,13.43
2018-03-22T02:41:24.373Z,12.03
2018-03-22T02:43:28.506Z,11.23
2018-03-22T02:45:31.901Z,12.05
2018-03-22T02:47:35.263Z,13.18
2018-03-22T02:49:38.652Z,15.55
2018-03-22T02:51:42.002Z,17.67
2018-03-22T02:53:45.335Z,18.10
2018-03-22T02:55:48.692Z,19.52
2018-03-22T02:57:52.070Z,16.00
2018-03-22T02:59:55.481Z,16.83
2018-03-22T03:02:01.296Z,13.10
2018-03-22T03:04:04.690Z,12.98
2018-03-22T03:06:08.769Z,13.07
2018-03-22T03:08:12.216Z,10.95
2018-03-22T03:10:15.813Z,12.45
2018-03-22T03:12:19.181Z,8.40
2018-03-22T03:14:22.824Z,13.07
2018-03-22T03:16:26.247Z,9.20
2018-03-22T03:18:30.356Z,11.68
2018-03-22T03:20:33.766Z,10.50
2018-03-22T03:22:37.870Z,13.65
2018-03-22T03:24:41.979Z,14.27
2018-03-22T03:26:48.568Z,13.70
2018-03-22T03:28:52.066Z,11.90
2018-03-22T03:30:56.228Z,10.25
2018-03-22T03:33:00.738Z,13.30
2018-03-22T03:35:04.089Z,13.40
2018-03-22T03:37:07.482Z,11.77
2018-03-22T03:39:10.849Z,11.57
2018-03-22T03:41:15.257Z,10.30
2018-03-22T03:43:19.335Z,11.95
2018-03-22T03:45:22.670Z,9.18
2018-03-22T03:47:27.296Z,12.57
2018-03-22T03:49:31.500Z,15.02
2018-03-22T03:51:35.623Z,12.13
2018-03-22T03:53:38.983Z,14.82
2018-03-22T03:55:43.094Z,10.20
2018-03-22T03:57:47.672Z,9.70
2018-03-22T03:59:51.015Z,13.70
2018-03-22T04:01:55.018Z,10.15
2018-03-22T04:03:58.361Z,9.05
2018-03-22T04:06:01.754Z,16.70
2018-03-22T04:08:05.151Z,11.18
2018-03-22T04:10:09.932Z,14.30
2018-03-22T04:12:13.334Z,13.52
2018-03-22T04:14:16.754Z,18.30
2018-03-22T04:16:20.130Z,13.68
2018-03-22T04:18:23.470Z,11.98
2018-03-22T04:20:26.840Z,13.88
2018-03-22T04:22:31.886Z,16.00
2018-03-22T04:24:36.082Z,10.75
2018-03-22T04:26:40.830Z,17.98
2018-03-22T04:28:45.389Z,12.63
2018-03-22T04:30:49.296Z,14.82
2018-03-22T04:32:52.726Z,12.75
2018-03-22T04:34:57.214Z,9.65
2018-03-22T04:37:00.862Z,10.75
2018-03-22T04:39:05.227Z,12.93
2018-03-22T04:41:08.594Z,14.40
2018-03-22T04:43:13.124Z,8.45
2018-03-22T04:45:16.587Z,11.48
2018-03-22T04:47:20.713Z,12.43
2018-03-22T04:49:25.168Z,12.55
2018-03-22T04:51:28.560Z,9.80
2018-03-22T04:53:32.371Z,16.37
2018-03-22T04:55:35.958Z,12.77
2018-03-22T04:57:39.439Z,14.70
2018-03-22T04:59:43.722Z,12.77
2018-03-22T05:01:47.844Z,12.57
2018-03-22T05:03:51.207Z,9.93
2018-03-22T05:05:54.597Z,9.88
2018-03-22T05:07:57.951Z,16.67
2018-03-22T05:10:01.303Z,16.30
2018-03-22T05:12:05.647Z,16.67
2018-03-22T05:14:09.009Z,20.15
2018-03-22T05:16:13.733Z,20.77
2018-03-22T05:18:17.843Z,17.62
2018-03-22T05:20:22.770Z,19.15
2018-03-22T05:22:26.877Z,12.50
2018-03-22T05:24:31.053Z,17.67
2018-03-22T05:26:34.418Z,13.40
2018-03-22T05:28:37.780Z,17.02
2018-03-22T05:30:42.172Z,13.07
2018-03-22T05:32:49.174Z,15.43
2018-03-22T05:34:53.780Z,17.52
2018-03-22T05:36:58.098Z,17.15
2018-03-22T05:39:02.271Z,19.08
2018-03-22T05:41:05.742Z,14.63
2018-03-22T05:43:09.270Z,13.77
2018-03-22T05:45:13.565Z,14.27
2018-03-22T05:47:16.988Z,14.97
2018-03-22T05:49:20.570Z,13.27
2018-03-22T05:51:25.029Z,17.12
2018-03-22T05:53:28.416Z,13.62
2018-03-22T05:55:31.838Z,15.77
2018-03-22T05:57:35.171Z,16.40
2018-03-22T05:59:38.565Z,14.93
2018-03-22T06:01:41.918Z,17.27
2018-03-22T06:03:45.591Z,15.47
2018-03-22T06:05:51.192Z,21.95
2018-03-22T06:07:54.541Z,14.10
2018-03-22T06:09:58.774Z,12.50
2018-03-22T06:12:02.112Z,19.53
2018-03-22T06:14:06.245Z,20.23
2018-03-22T06:16:10.520Z,18.27
2018-03-22T06:18:13.869Z,22.20
2018-03-22T06:20:17.231Z,21.77
2018-03-22T06:22:21.785Z,19.47
2018-03-22T06:24:25.866Z,20.97
2018-03-22T06:26:29.835Z,17.58
2018-03-22T06:28:35.181Z,19.90
2018-03-22T06:30:38.687Z,16.33
2018-03-22T06:32:42.670Z,14.80
2018-03-22T06:34:46.095Z,15.10
2018-03-22T06:36:50.377Z,20.77
2018-03-22T06:38:58.086Z,21.37
2018-03-22T06:41:01.538Z,18.93
2018-03-22T06:43:06.236Z,17.92
2018-03-22T06:45:10.300Z,19.93
2018-03-22T06:47:13.704Z,11.77
2018-03-22T06:49:17.818Z,17.33
2018-03-22T06:51:21.957Z,12.87
2018-03-22T06:53:25.294Z,21.27
2018-03-22T06:55:28.644Z,22.27
2018-03-22T06:57:32.004Z,15.67
2018-03-22T06:59:36.100Z,16.20
2018-03-22T07:01:40.476Z,14.13
2018-03-22T07:03:45.739Z,17.77
2018-03-22T07:05:50.912Z,16.10
2018-03-22T07:07:55.237Z,16.40
2018-03-22T07:09:59.381Z,32.83
2018-03-22T07:12:02.822Z,14.20
2018-03-22T07:14:07.091Z,16.50
2018-03-22T07:16:10.458Z,16.97
2018-03-22T07:18:14.350Z,17.70
2018-03-22T07:20:18.714Z,15.87
2018-03-22T07:22:22.099Z,16.20
2018-03-22T07:24:27.216Z,21.17
2018-03-22T07:26:32.428Z,18.90
2018-03-22T07:28:37.228Z,17.10
2018-03-22T07:30:43.186Z,16.77
2018-03-22T07:32:48.066Z,17.07
2018-03-22T07:34:53.570Z,27.37
2018-03-22T07:36:59.377Z,17.33
2018-03-22T07:39:03.053Z,21.60
2018-03-22T07:41:07.221Z,20.73
2018-03-22T07:43:17.885Z,20.07
2018-03-22T07:45:25.898Z,18.20
2018-03-22T07:47:29.272Z,23.70
2018-03-22T07:49:33.824Z,19.40
2018-03-22T07:51:37.903Z,22.13
2018-03-22T07:53:42.017Z,20.47
2018-03-22T07:55:46.133Z,24.60
2018-03-22T07:57:49.502Z,29.47
2018-03-22T07:59:52.835Z,33.07
2018-03-22T08:01:56.176Z,23.33
2018-03-22T08:03:59.573Z,22.77
2018-03-22T08:06:02.903Z,30.63
2018-03-22T08:08:06.969Z,26.13
2018-03-22T08:10:11.103Z,31.17
2018-03-22T08:12:14.523Z,34.63
2018-03-22T08:14:17.886Z,29.90
2018-03-22T08:16:22.232Z,23.97
2018-03-22T08:18:26.435Z,32.03
2018-03-22T08:20:31.125Z,28.20
2018-03-22T08:22:34.590Z,25.63
2018-03-22T08:24:39.310Z,30.83
2018-03-22T08:26:43.564Z,26.93
2018-03-22T08:28:49.756Z,29.73
2018-03-22T08:30:54.475Z,33.07
2018-03-22T08:32:59.821Z,28.50
2018-03-22T08:35:03.211Z,23.10
2018-03-22T08:37:07.792Z,27.97
2018-03-22T08:39:12.796Z,26.03
2018-03-22T08:41:17.845Z,23.60
2018-03-22T08:43:21.135Z,38.50
2018-03-22T08:45:25.996Z,25.03
2018-03-22T08:47:29.442Z,34.40
2018-03-22T08:49:32.786Z,29.10
2018-03-22T08:51:36.845Z,26.00
2018-03-22T08:53:40.239Z,33.37
2018-03-22T08:55:46.346Z,37.60
2018-03-22T08:57:51.279Z,26.57
2018-03-22T08:59:54.616Z,29.83
2018-03-22T09:01:58.233Z,33.70
2018-03-22T09:04:01.631Z,31.93
2018-03-22T09:06:05.018Z,31.23
2018-03-22T09:08:08.418Z,43.90
2018-03-22T09:10:11.733Z,28.10
2018-03-22T09:12:15.111Z,35.10
2018-03-22T09:14:18.991Z,32.23
2018-03-22T09:16:22.390Z,34.53
2018-03-22T09:18:25.764Z,33.77
2018-03-22T09:20:30.489Z,32.60
2018-03-22T09:22:34.609Z,37.27
2018-03-22T09:24:38.144Z,32.20
2018-03-22T09:26:47.209Z,36.43
2018-03-22T09:28:50.548Z,33.23
2018-03-22T09:30:53.885Z,31.70
2018-03-22T09:32:57.228Z,33.27
2018-03-22T09:35:00.592Z,30.07
2018-03-22T09:37:03.988Z,29.33
2018-03-22T09:39:08.221Z,31.37
2018-03-22T09:41:11.943Z,33.10
2018-03-22T09:43:15.293Z,32.23
2018-03-22T09:45:18.659Z,32.00
2018-03-22T09:47:22.105Z,36.67
2018-03-22T09:49:25.525Z,27.60
2018-03-22T09:51:28.891Z,27.60
2018-03-22T09:53:32.271Z,28.53
2018-03-22T09:55:35.657Z,25.77
2018-03-22T09:57:39.087Z,31.43
2018-03-22T09:59:42.422Z,33.07
2018-03-22T10:01:46.558Z,34.40
2018-03-22T10:03:50.969Z,35.73
2018-03-22T10:05:55.177Z,27.50
2018-03-22T10:08:00.237Z,32.60
2018-03-22T10:10:04.890Z,31.20
2018-03-22T10:12:09.080Z,33.43
2018-03-22T10:14:12.661Z,33.27
2018-03-22T10:16:16.097Z,36.80
2018-03-22T10:18:20.333Z,35.10
2018-03-22T10:20:24.443Z,38.43
2018-03-22T10:22:27.785Z,31.00
2018-03-22T10:24:31.987Z,39.47
2018-03-22T10:26:35.328Z,36.93
2018-03-22T10:28:39.511Z,33.73
2018-03-22T10:30:44.969Z,36.40
2018-03-22T10:32:48.291Z,32.90
2018-03-22T10:34:51.710Z,43.83
2018-03-22T10:36:55.835Z,39.77
2018-03-22T10:39:00.092Z,38.23
2018-03-22T10:41:03.435Z,45.67
2018-03-22T10:43:06.774Z,34.67
2018-03-22T10:45:10.920Z,34.03
2018-03-22T10:47:15.062Z,36.23
2018-03-22T10:49:18.455Z,32.73
2018-03-22T10:51:21.834Z,37.73
2018-03-22T10:53:25.173Z,39.83
2018-03-22T10:55:29.317Z,33.90
2018-03-22T10:57:32.663Z,29.00
2018-03-22T10:59:36.748Z,42.73
2018-03-22T11:01:45.899Z,31.50
2018-03-22T11:03:53.753Z,40.73
2018-03-22T11:05:57.138Z,31.20
2018-03-22T11:08:01.248Z,38.93
2018-03-22T11:10:04.588Z,46.17
2018-03-22T11:12:08.014Z,40.07
2018-03-22T11:14:11.376Z,42.47
2018-03-22T11:16:14.778Z,38.90
2018-03-22T11:18:19.902Z,39.63
2018-03-22T11:20:24.087Z,39.33
2018-03-22T11:22:27.440Z,41.63
2018-03-22T11:24:30.811Z,43.57
2018-03-22T11:26:36.028Z,35.53
2018-03-22T11:28:40.782Z,38.20
2018-03-22T11:30:44.350Z,39.93
2018-03-22T11:32:48.552Z,44.60
2018-03-22T11:34:52.655Z,37.67
2018-03-22T11:36:56.045Z,38.80
2018-03-22T11:39:00.114Z,41.83
2018-03-22T11:41:03.459Z,40.17
2018-03-22T11:43:06.909Z,29.83
2018-03-22T11:45:10.292Z,36.70
2018-03-22T11:47:14.542Z,35.37
2018-03-22T11:49:18.143Z,38.33
2018-03-22T11:51:21.658Z,37.33
2018-03-22T11:53:26.440Z,33.03
2018-03-22T11:55:29.918Z,32.37
2018-03-22T11:57:33.364Z,25.67
2018-03-22T11:59:37.482Z,28.37
2018-03-22T12:01:41.602Z,29.10
2018-03-22T12:03:44.977Z,33.37
2018-03-22T12:05:49.092Z,27.33
2018-03-22T12:07:52.499Z,33.57
2018-03-22T12:09:55.885Z,32.03
2018-03-22T12:11:59.406Z,29.03
2018-03-22T12:14:03.799Z,29.57
2018-03-22T12:16:07.199Z,33.87
2018-03-22T12:18:11.064Z,28.43
2018-03-22T12:20:14.662Z,26.03
2018-03-22T12:22:19.180Z,29.73
2018-03-22T12:24:24.662Z,29.47
2018-03-22T12:26:28.157Z,25.50
2018-03-22T12:28:31.660Z,25.57
2018-03-22T12:30:35.344Z,27.10
2018-03-22T12:32:38.734Z,25.37
2018-03-22T12:34:42.907Z,29.97
2018-03-22T12:36:46.372Z,31.57
2018-03-22T12:38:50.998Z,24.60
2018-03-22T12:40:54.380Z,29.37
2018-03-22T12:42:57.762Z,28.07
2018-03-22T12:45:04.012Z,29.70
2018-03-22T12:47:07.968Z,27.73
2018-03-22T12:49:12.460Z,24.57
2018-03-22T12:51:15.976Z,29.43
2018-03-22T12:53:20.164Z,31.10
2018-03-22T12:55:23.752Z,31.00
2018-03-22T12:57:27.193Z,35.87
2018-03-22T12:59:32.279Z,33.07
2018-03-22T13:01:35.744Z,32.60
2018-03-22T13:03:39.446Z,31.50
2018-03-22T13:05:42.907Z,33.43
2018-03-22T13:07:46.599Z,32.67
2018-03-22T13:09:50.122Z,30.93
2018-03-22T13:11:53.496Z,35.20
2018-03-22T13:13:56.922Z,31.07
2018-03-22T13:16:00.468Z,31.43
2018-03-22T13:18:03.885Z,32.83
2018-03-22T13:20:07.994Z,31.73
2018-03-22T13:22:11.362Z,36.23
2018-03-22T13:24:14.709Z,31.70
2018-03-22T13:26:18.120Z,22.70
2018-03-22T13:28:22.222Z,24.30
2018-03-22T13:30:27.103Z,28.50
2018-03-22T13:32:30.741Z,29.60
2018-03-22T13:34:34.102Z,25.97
2018-03-22T13:36:38.238Z,31.30
2018-03-22T13:38:41.605Z,30.57
2018-03-22T13:40:45.791Z,26.90
2018-03-22T13:42:50.032Z,27.27
2018-03-22T13:44:54.751Z,25.27
2018-03-22T13:46:59.375Z,26.73
2018-03-22T13:49:03.490Z,23.37
2018-03-22T13:51:06.946Z,25.83
2018-03-22T13:53:11.189Z,24.03
2018-03-22T13:55:15.047Z,22.77
2018-03-22T13:57:18.393Z,24.87
2018-03-22T13:59:22.533Z,25.27
2018-03-22T14:01:26.048Z,25.13
2018-03-22T14:03:30.807Z,27.90
2018-03-22T14:05:34.216Z,28.03
2018-03-22T14:07:38.405Z,30.67
2018-03-22T14:09:41.852Z,31.13
2018-03-22T14:11:45.214Z,26.60
2018-03-22T14:13:49.293Z,27.20
2018-03-22T14:15:52.779Z,25.70
2018-03-22T14:17:56.924Z,30.93
2018-03-22T14:20:01.084Z,31.03
2018-03-22T14:22:04.736Z,28.00
2018-03-22T14:24:08.349Z,30.63
2018-03-22T14:26:12.517Z,33.80
2018-03-22T14:28:17.454Z,29.63
2018-03-22T14:30:21.606Z,34.07
2018-03-22T14:32:24.953Z,28.30
2018-03-22T14:34:28.408Z,31.57
2018-03-22T14:36:31.764Z,35.37
2018-03-22T14:38:35.230Z,33.03
2018-03-22T14:40:39.588Z,29.50
2018-03-22T14:42:43.851Z,32.47
2018-03-22T14:44:48.074Z,34.40
2018-03-22T14:46:51.794Z,35.20
2018-03-22T14:48:55.830Z,27.80
2018-03-22T14:51:00.556Z,30.70
2018-03-22T14:53:04.205Z,32.17
2018-03-22T14:55:07.608Z,31.60
2018-03-22T14:57:11.084Z,29.10
2018-03-22T14:59:14.577Z,33.20
2018-03-22T15:01:20.485Z,32.13
2018-03-22T15:03:23.822Z,39.93
2018-03-22T15:05:27.184Z,31.23
2018-03-22T15:07:30.538Z,34.67
2018-03-22T15:09:39.487Z,37.13
2018-03-22T15:11:43.674Z,30.93
2018-03-22T15:13:47.022Z,30.73
2018-03-22T15:15:50.414Z,31.50
2018-03-22T15:17:53.772Z,30.97
2018-03-22T15:19:58.142Z,35.30
2018-03-22T15:22:01.514Z,44.07
2018-03-22T15:24:04.885Z,40.20
2018-03-22T15:26:09.400Z,29.80
2018-03-22T15:28:12.943Z,34.10
2018-03-22T15:30:16.448Z,32.07
2018-03-22T15:32:20.427Z,31.23
2018-03-22T15:34:24.586Z,30.37
2018-03-22T15:36:27.982Z,35.70
2018-03-22T15:38:31.356Z,36.70
2018-03-22T15:40:35.151Z,33.70
2018-03-22T15:42:38.540Z,37.23
2018-03-22T15:44:43.868Z,28.73
2018-03-22T15:46:47.269Z,35.13
2018-03-22T15:48:51.650Z,38.13
2018-03-22T15:50:55.011Z,34.50
2018-03-22T15:52:58.477Z,32.80
2018-03-22T15:55:02.906Z,28.63
2018-03-22T15:57:07.191Z,30.73
2018-03-22T15:59:10.558Z,34.77
2018-03-22T16:01:14.019Z,34.57
2018-03-22T16:03:17.441Z,32.90
2018-03-22T16:05:21.716Z,33.23
2018-03-22T16:07:25.123Z,32.27
2018-03-22T16:09:28.490Z,32.77
2018-03-22T16:11:31.877Z,36.30
2018-03-22T16:13:35.247Z,31.60
2018-03-22T16:15:39.474Z,33.30
2018-03-22T16:17:44.647Z,31.70
2018-03-22T16:19:48.574Z,33.97
2018-03-22T16:21:51.898Z,32.47
2018-03-22T16:23:56.028Z,32.30
2018-03-22T16:25:59.347Z,36.20
2018-03-22T16:28:02.721Z,35.00
2018-03-22T16:30:06.134Z,35.83
2018-03-22T16:32:09.475Z,39.10
2018-03-22T16:34:13.597Z,31.40
2018-03-22T16:36:16.949Z,31.87
2018-03-22T16:38:20.279Z,28.87
2018-03-22T16:40:23.671Z,30.63
2018-03-22T16:42:27.055Z,35.30
2018-03-22T16:44:31.168Z,33.73
2018-03-22T16:46:34.563Z,38.00
2018-03-22T16:48:38.132Z,34.47
2018-03-22T16:50:41.543Z,35.50
2018-03-22T16:52:45.791Z,31.83
2018-03-22T16:54:49.160Z,35.70
2018-03-22T16:56:52.488Z,30.60
2018-03-22T16:58:55.871Z,32.83
2018-03-22T17:00:59.243Z,31.93
2018-03-22T17:03:02.826Z,30.73
2018-03-22T17:05:07.022Z,31.13
2018-03-22T17:07:11.139Z,33.87
2018-03-22T17:09:15.238Z,33.23
2018-03-22T17:11:19.381Z,33.40
2018-03-22T17:13:22.721Z,34.73
2018-03-22T17:15:26.205Z,35.23
2018-03-22T17:17:29.583Z,30.87
2018-03-22T17:19:32.931Z,28.80
2018-03-22T17:21:36.300Z,27.00
2018-03-22T17:23:39.663Z,29.30
2018-03-22T17:25:43.003Z,27.13
2018-03-22T17:27:47.120Z,33.93
2018-03-22T17:29:51.209Z,28.83
2018-03-22T17:31:55.358Z,32.93
2018-03-22T17:33:58.678Z,27.23
2018-03-22T17:36:02.082Z,28.50
2018-03-22T17:38:05.444Z,31.30
2018-03-22T17:40:08.805Z,33.30
2018-03-22T17:42:12.161Z,30.60
2018-03-22T17:44:15.535Z,27.93
2018-03-22T17:46:18.888Z,29.57
2018-03-22T17:48:22.235Z,28.80
2018-03-22T17:50:25.626Z,30.97
2018-03-22T17:52:29.000Z,31.10
2018-03-22T17:54:32.512Z,31.77
2018-03-22T17:56:36.656Z,31.37
2018-03-22T17:58:40.032Z,33.17
2018-03-22T18:00:44.149Z,30.27
2018-03-22T18:02:47.568Z,31.57
2018-03-22T18:04:51.680Z,31.30
2018-03-22T18:06:55.046Z,35.13
2018-03-22T18:08:58.466Z,29.60
2018-03-22T18:11:01.842Z,33.17
2018-03-22T18:13:05.277Z,34.60
2018-03-22T18:15:08.629Z,34.90
2018-03-22T18:17:12.013Z,35.83
2018-03-22T18:19:15.457Z,38.57
2018-03-22T18:21:18.830Z,35.67
2018-03-22T18:23:22.196Z,38.70
2018-03-22T18:25:25.611Z,35.33
2018-03-22T18:27:29.058Z,35.87
2018-03-22T18:31:42.870Z,36.50
2018-03-22T18:33:46.314Z,40.20
2018-03-22T18:35:49.675Z,44.63
2018-03-22T18:37:53.107Z,40.13
2018-03-22T18:39:56.544Z,37.27
2018-03-22T18:41:59.896Z,34.93
2018-03-22T18:44:04.001Z,41.40
2018-03-22T18:46:07.377Z,45.27
2018-03-22T18:48:10.760Z,41.80
2018-03-22T18:50:14.930Z,42.40
2018-03-22T18:52:18.331Z,43.00
2018-03-22T18:54:21.728Z,43.77
2018-03-22T18:56:25.967Z,47.63
2018-03-22T18:58:30.096Z,47.20
2018-03-22T19:00:33.566Z,51.83
2018-03-22T19:02:37.705Z,46.30
2018-03-22T19:04:41.812Z,47.87
2018-03-22T19:06:45.943Z,44.03
2018-03-22T19:08:49.289Z,49.43
2018-03-22T19:10:53.168Z,58.43
2018-03-22T19:12:57.897Z,48.83
2018-03-22T19:15:03.531Z,47.93
2018-03-22T19:17:07.077Z,48.63
2018-03-22T19:19:10.966Z,55.37
2018-03-22T19:21:15.203Z,50.13
2018-03-22T19:23:18.700Z,48.13
2018-03-22T19:25:22.094Z,55.70
2018-03-22T19:27:26.510Z,47.60
2018-03-22T19:29:29.883Z,51.00
2018-03-22T19:31:34.166Z,46.20
2018-03-22T19:33:38.032Z,51.30
2018-03-22T19:35:41.472Z,50.20
2018-03-22T19:37:44.945Z,57.10
2018-03-22T19:39:48.403Z,53.13
2018-03-22T19:41:52.669Z,47.93
2018-03-22T19:43:56.036Z,51.20
2018-03-22T19:45:59.380Z,52.70
2018-03-22T19:48:03.751Z,47.63
2018-03-22T19:50:07.116Z,48.33
2018-03-22T19:52:10.456Z,55.00
2018-03-22T19:54:13.831Z,52.87
2018-03-22T19:56:17.187Z,55.23
2018-03-22T19:58:20.558Z,56.27
2018-03-22T20:00:24.664Z,51.87
2018-03-22T20:02:28.910Z,54.20
2018-03-22T20:04:32.513Z,61.77
2018-03-22T20:06:35.847Z,62.37
2018-03-22T20:08:39.229Z,55.90
2018-03-22T20:10:42.585Z,57.03
2018-03-22T20:12:47.021Z,63.27
2018-03-22T20:14:50.550Z,71.00
2018-03-22T20:16:54.688Z,66.73
2018-03-22T20:18:58.059Z,70.10
2018-03-22T20:21:01.395Z,69.23
2018-03-22T20:23:04.749Z,59.67
2018-03-22T20:25:08.881Z,70.33
2018-03-22T20:27:12.203Z,64.83
2018-03-22T20:29:15.574Z,74.20
2018-03-22T20:31:18.950Z,66.57
2018-03-22T20:33:22.287Z,70.93
2018-03-22T20:35:25.671Z,73.73
2018-03-22T20:37:29.029Z,71.80
2018-03-22T20:39:32.396Z,73.50
2018-03-22T20:41:36.510Z,65.03
2018-03-22T20:43:39.844Z,80.60
2018-03-22T20:45:43.226Z,85.83
2018-03-22T20:47:46.566Z,76.83
2018-03-22T20:49:50.686Z,83.03
2018-03-22T20:51:54.778Z,77.10
2018-03-22T20:53:58.092Z,78.40
2018-03-22T20:56:02.201Z,80.07
2018-03-22T20:58:06.310Z,67.20
2018-03-22T21:00:10.428Z,75.03
2018-03-22T21:02:13.778Z,79.70
2018-03-22T21:04:17.105Z,76.57
2018-03-22T21:06:20.430Z,79.03
2018-03-22T21:08:23.774Z,75.90
2018-03-22T21:10:30.410Z,79.47
2018-03-22T21:12:34.867Z,80.57
2018-03-22T21:14:40.365Z,79.07
2018-03-22T21:16:44.485Z,81.33
2018-03-22T21:18:47.871Z,89.77
2018-03-22T21:20:51.203Z,94.00
2018-03-22T21:22:55.312Z,80.70
2018-03-22T21:24:59.406Z,84.50
2018-03-22T21:27:03.498Z,83.20
2018-03-22T21:29:06.828Z,70.13
2018-03-22T21:31:11.009Z,76.87
2018-03-22T21:33:14.384Z,84.93
2018-03-22T21:35:17.723Z,80.13
2018-03-22T21:37:21.056Z,84.20
2018-03-22T21:39:24.387Z,83.10
2018-03-22T21:41:28.668Z,76.67
2018-03-22T21:43:32.113Z,80.23
2018-03-22T21:45:36.299Z,83.37
2018-03-22T21:47:39.638Z,76.33
2018-03-22T21:49:42.978Z,80.47
2018-03-22T21:51:58.182Z,78.33
2018-03-22T21:54:01.594Z,79.70
2018-03-22T21:56:04.917Z,75.50
2018-03-22T21:58:08.253Z,89.53
2018-03-22T22:00:11.627Z,89.70
2018-03-22T22:02:15.730Z,82.93
2018-03-22T22:04:19.075Z,84.17
2018-03-22T22:06:22.416Z,88.97
2018-03-22T22:08:26.521Z,79.13
2018-03-22T22:10:29.849Z,85.40
2018-03-22T22:12:33.193Z,82.47
2018-03-22T22:14:36.514Z,84.30
2018-03-22T22:16:40.604Z,87.80
2018-03-22T22:18:44.716Z,79.37
2018-03-22T22:20:48.835Z,80.73
2018-03-22T22:22:52.932Z,73.17
2018-03-22T22:24:57.033Z,85.50
2018-03-22T22:27:00.421Z,84.50
2018-03-22T22:29:03.735Z,83.33
2018-03-22T22:31:07.857Z,82.93
2018-03-22T22:33:11.176Z,81.20
2018-03-22T22:35:14.510Z,80.17
2018-03-22T22:37:17.868Z,70.83
2018-03-22T22:39:21.218Z,78.47
2018-03-22T22:41:24.557Z,68.80
2018-03-22T22:43:27.904Z,68.60
2018-03-22T22:45:31.227Z,69.87
2018-03-22T22:47:34.558Z,79.83
2018-03-22T22:49:37.931Z,75.83
2018-03-22T22:51:41.253Z,69.57
2018-03-22T22:53:44.639Z,81.50
2018-03-22T22:55:48.731Z,75.40
2018-03-22T22:57:53.280Z,85.63
2018-03-22T22:59:57.444Z,83.10
2018-03-22T23:02:02.426Z,73.80
2018-03-22T23:04:05.847Z,77.10
2018-03-22T23:06:09.200Z,88.27
2018-03-22T23:08:12.557Z,77.70
2018-03-22T23:10:15.915Z,79.40
2018-03-22T23:12:19.256Z,75.07
2018-03-22T23:14:22.645Z,80.60
2018-03-22T23:16:26.028Z,78.43
2018-03-22T23:18:30.342Z,71.80
2018-03-22T23:20:34.600Z,72.63
2018-03-22T23:22:38.000Z,68.10
2018-03-22T23:24:43.490Z,73.23
2018-03-22T23:26:47.821Z,72.47
2018-03-22T23:28:51.172Z,70.47
2018-03-22T23:30:54.506Z,67.60
2018-03-22T23:32:58.653Z,72.50
2018-03-22T23:35:01.962Z,63.13
2018-03-22T23:37:05.288Z,67.23
2018-03-22T23:39:08.629Z,75.40
2018-03-22T23:41:11.958Z,72.47
2018-03-22T23:43:15.293Z,79.77
2018-03-22T23:45:18.641Z,62.57
2018-03-22T23:47:21.975Z,70.60
2018-03-22T23:49:25.317Z,66.67
2018-03-22T23:51:28.661Z,73.13
2018-03-22T23:53:31.987Z,65.90
2018-03-22T23:55:35.310Z,70.60
2018-03-22T23:57:38.634Z,76.00
2018-03-22T23:59:41.985Z,70.07
